createdAt,value
2023-04-16T00:00:18.231Z,9.279808
2023-04-16T00:01:18.180Z,9.279802
2023-04-16T00:02:18.229Z,9.279761
2023-04-16T00:03:18.301Z,9.279797
2023-04-16T00:04:18.182Z,9.279806
2023-04-16T00:05:18.144Z,9.279790
2023-04-16T00:06:18.096Z,9.279756
2023-04-16T00:07:18.088Z,9.279772
2023-04-16T00:08:18.064Z,9.279876
2023-04-16T00:09:18.054Z,9.279993
2023-04-16T00:10:18.054Z,9.279922
2023-04-16T00:11:18.005Z,9.279832
2023-04-16T00:12:18.002Z,9.279852
2023-04-16T00:13:17.967Z,9.279757
2023-04-16T00:14:17.954Z,9.279778
2023-04-16T00:15:17.960Z,9.279798
2023-04-16T00:16:17.946Z,9.279814
2023-04-16T00:17:17.947Z,9.279916
2023-04-16T00:18:17.881Z,9.279841
2023-04-16T00:19:17.868Z,9.279870
2023-04-16T00:20:17.880Z,9.279928
2023-04-16T00:21:17.831Z,9.279931
2023-04-16T00:22:17.813Z,9.279898
2023-04-16T00:23:17.800Z,9.279809
2023-04-16T00:24:17.780Z,9.279816
2023-04-16T00:25:17.786Z,9.279862
2023-04-16T00:26:17.741Z,9.279902
2023-04-16T00:27:17.727Z,9.279867
2023-04-16T00:28:17.711Z,9.279776
2023-04-16T00:29:17.688Z,9.279857
2023-04-16T00:30:17.702Z,9.279923
2023-04-16T00:31:17.674Z,9.279903
2023-04-16T00:32:17.656Z,9.279950
2023-04-16T00:33:17.626Z,9.279897
2023-04-16T00:34:17.603Z,9.279799
2023-04-16T00:35:17.611Z,9.279877
2023-04-16T00:36:17.567Z,9.279785
2023-04-16T00:37:17.558Z,9.279772
2023-04-16T00:38:17.528Z,9.279876
2023-04-16T00:39:18.517Z,9.279796
2023-04-16T00:40:17.531Z,9.279869
2023-04-16T00:41:17.482Z,9.279768
2023-04-16T00:42:17.504Z,9.279875
2023-04-16T00:43:17.449Z,9.279937
2023-04-16T00:44:17.431Z,9.279937
2023-04-16T00:45:17.443Z,9.279912
2023-04-16T00:46:17.410Z,9.279950
2023-04-16T00:47:17.445Z,9.279974
2023-04-16T00:48:17.359Z,9.279780
2023-04-16T00:49:17.341Z,9.279811
2023-04-16T00:50:17.350Z,9.279853
2023-04-16T00:51:17.306Z,9.279921
2023-04-16T00:52:17.281Z,9.279839
2023-04-16T00:53:17.278Z,9.279881
2023-04-16T00:54:17.259Z,9.279930
2023-04-16T00:55:17.265Z,9.279949
2023-04-16T00:56:17.781Z,9.279958
2023-04-16T00:57:17.197Z,9.279910
2023-04-16T00:58:17.198Z,9.279914
2023-04-16T00:59:17.167Z,9.279982
2023-04-16T01:00:17.177Z,9.279988
2023-04-16T01:01:17.154Z,9.279905
2023-04-16T01:02:17.362Z,9.279842
2023-04-16T01:03:17.233Z,9.279948
2023-04-16T01:04:18.218Z,9.279941
2023-04-16T01:05:17.092Z,9.279943
2023-04-16T01:06:17.045Z,9.279908
2023-04-16T01:07:17.021Z,9.279930
2023-04-16T01:08:17.027Z,9.279929
2023-04-16T01:09:16.991Z,9.279940
2023-04-16T01:10:16.999Z,9.279982
2023-04-16T01:11:16.956Z,9.279975
2023-04-16T01:12:16.955Z,9.279818
2023-04-16T01:13:16.933Z,9.279934
2023-04-16T01:14:16.918Z,9.279900
2023-04-16T01:15:16.918Z,9.279934
2023-04-16T01:16:16.894Z,9.279969
2023-04-16T01:17:16.856Z,9.279988
2023-04-16T01:18:16.871Z,9.279973
2023-04-16T01:19:16.830Z,9.280009
2023-04-16T01:20:16.822Z,9.279923
2023-04-16T01:21:16.783Z,9.280014
2023-04-16T01:22:16.766Z,9.279922
2023-04-16T01:23:16.748Z,9.279975
2023-04-16T01:24:16.732Z,9.280039
2023-04-16T01:25:16.788Z,9.280090
2023-04-16T01:26:16.693Z,9.279971
2023-04-16T01:27:16.681Z,9.279819
2023-04-16T01:28:16.653Z,9.279919
2023-04-16T01:29:16.650Z,9.279971
2023-04-16T01:30:16.654Z,9.279830
2023-04-16T01:31:16.635Z,9.279907
2023-04-16T01:32:16.588Z,9.279959
2023-04-16T01:33:16.580Z,9.279962
2023-04-16T01:34:16.554Z,9.280005
2023-04-16T01:35:16.561Z,9.279780
2023-04-16T01:36:16.522Z,9.279726
2023-04-16T01:37:16.503Z,9.279918
2023-04-16T01:38:16.495Z,9.279912
2023-04-16T01:39:16.574Z,9.279812
2023-04-16T01:40:16.476Z,9.279843
2023-04-16T01:41:16.430Z,9.279805
2023-04-16T01:42:16.413Z,9.279851
2023-04-16T01:43:16.398Z,9.279803
2023-04-16T01:44:16.379Z,9.279888
2023-04-16T01:45:16.391Z,9.279829
2023-04-16T01:46:16.491Z,9.279859
2023-04-16T01:47:16.349Z,9.279916
2023-04-16T01:48:16.306Z,9.279894
2023-04-16T01:49:16.288Z,9.279786
2023-04-16T01:50:16.294Z,9.279963
2023-04-16T01:51:17.261Z,9.279683
2023-04-16T01:52:16.239Z,9.280060
2023-04-16T01:53:16.220Z,9.280074
2023-04-16T01:54:16.207Z,9.279821
2023-04-16T01:55:16.221Z,9.279920
2023-04-16T01:56:16.170Z,9.280094
2023-04-16T01:57:16.150Z,9.279847
2023-04-16T01:58:16.132Z,9.279845
2023-04-16T01:59:16.115Z,9.279985
2023-04-16T02:00:16.117Z,9.279969
2023-04-16T02:01:16.149Z,9.279947
2023-04-16T02:02:16.157Z,9.279984
2023-04-16T02:03:16.264Z,9.279992
2023-04-16T02:04:16.061Z,9.279958
2023-04-16T02:05:16.040Z,9.280006
2023-04-16T02:06:15.992Z,9.279954
2023-04-16T02:07:15.977Z,9.279963
2023-04-16T02:08:15.957Z,9.279946
2023-04-16T02:09:15.940Z,9.279820
2023-04-16T02:10:15.951Z,9.279803
2023-04-16T02:11:15.909Z,9.279867
2023-04-16T02:12:15.891Z,9.279912
2023-04-16T02:13:15.867Z,9.279901
2023-04-16T02:14:15.854Z,9.279812
2023-04-16T02:15:15.877Z,9.279917
2023-04-16T02:16:15.861Z,9.279990
2023-04-16T02:17:15.805Z,9.279885
2023-04-16T02:18:15.780Z,9.279832
2023-04-16T02:19:15.766Z,9.279877
2023-04-16T02:20:15.768Z,9.279828
2023-04-16T02:21:15.732Z,9.279968
2023-04-16T02:22:16.511Z,9.279978
2023-04-16T02:23:15.686Z,9.279992
2023-04-16T02:24:15.671Z,9.279977
2023-04-16T02:25:15.682Z,9.280098
2023-04-16T02:26:15.633Z,9.279935
2023-04-16T02:27:15.614Z,9.279839
2023-04-16T02:28:15.602Z,9.279945
2023-04-16T02:29:15.580Z,9.279853
2023-04-16T02:30:15.595Z,9.279900
2023-04-16T02:31:15.609Z,9.279899
2023-04-16T02:32:15.604Z,9.279988
2023-04-16T02:33:15.520Z,9.279984
2023-04-16T02:34:15.498Z,9.279827
2023-04-16T02:35:15.499Z,9.279914
2023-04-16T02:36:15.462Z,9.279959
2023-04-16T02:37:15.443Z,9.280027
2023-04-16T02:38:15.423Z,9.279954
2023-04-16T02:39:15.404Z,9.279890
2023-04-16T02:40:15.412Z,9.279913
2023-04-16T02:41:15.366Z,9.279980
2023-04-16T02:42:15.350Z,9.279910
2023-04-16T02:43:15.329Z,9.279904
2023-04-16T02:44:15.317Z,9.279889
2023-04-16T02:45:15.335Z,9.279870
2023-04-16T02:46:15.317Z,9.279862
2023-04-16T02:47:15.264Z,9.279804
2023-04-16T02:48:15.244Z,9.279808
2023-04-16T02:49:15.228Z,9.279792
2023-04-16T02:50:15.234Z,9.279872
2023-04-16T02:51:15.193Z,9.279942
2023-04-16T02:52:15.730Z,9.279893
2023-04-16T02:53:16.156Z,9.279847
2023-04-16T02:54:15.133Z,9.279997
2023-04-16T02:55:15.151Z,9.279955
2023-04-16T02:56:15.126Z,9.279875
2023-04-16T02:57:15.080Z,9.279872
2023-04-16T02:58:15.065Z,9.279812
2023-04-16T02:59:15.049Z,9.279902
2023-04-16T03:00:15.061Z,9.279885
2023-04-16T03:01:15.077Z,9.279907
2023-04-16T03:02:15.028Z,9.279873
2023-04-16T03:03:15.032Z,9.279819
2023-04-16T03:04:14.997Z,9.279831
2023-04-16T03:05:14.976Z,9.279811
2023-04-16T03:06:14.920Z,9.279853
2023-04-16T03:07:14.902Z,9.279894
2023-04-16T03:08:14.882Z,9.279817
2023-04-16T03:09:14.868Z,9.279861
2023-04-16T03:10:14.886Z,9.279895
2023-04-16T03:11:14.832Z,9.279874
2023-04-16T03:12:14.808Z,9.279898
2023-04-16T03:13:14.795Z,9.279932
2023-04-16T03:14:14.775Z,9.279933
2023-04-16T03:15:14.775Z,9.279958
2023-04-16T03:16:14.825Z,9.279940
2023-04-16T03:17:14.719Z,9.279909
2023-04-16T03:18:14.696Z,9.279881
2023-04-16T03:19:14.679Z,9.279856
2023-04-16T03:20:14.687Z,9.279831
2023-04-16T03:21:14.644Z,9.279882
2023-04-16T03:22:14.629Z,9.279902
2023-04-16T03:23:14.614Z,9.279929
2023-04-16T03:24:14.588Z,9.279987
2023-04-16T03:25:15.609Z,9.279920
2023-04-16T03:26:14.552Z,9.280033
2023-04-16T03:27:15.533Z,9.279923
2023-04-16T03:28:15.523Z,9.279917
2023-04-16T03:29:14.507Z,9.279903
2023-04-16T03:30:14.527Z,9.279950
2023-04-16T03:31:14.513Z,9.279968
2023-04-16T03:32:14.886Z,9.279939
2023-04-16T03:33:14.555Z,9.279869
2023-04-16T03:34:14.421Z,9.279859
2023-04-16T03:35:14.427Z,9.279889
2023-04-16T03:36:14.388Z,9.279959
2023-04-16T03:37:14.365Z,9.279963
2023-04-16T03:38:14.352Z,9.279836
2023-04-16T03:39:14.332Z,9.279893
2023-04-16T03:40:14.337Z,9.279937
2023-04-16T03:41:14.300Z,9.279922
2023-04-16T03:42:14.279Z,9.279904
2023-04-16T03:43:14.264Z,9.279884
2023-04-16T03:44:14.250Z,9.279861
2023-04-16T03:45:14.253Z,9.279814
2023-04-16T03:46:14.252Z,9.279845
2023-04-16T03:47:14.189Z,9.279838
2023-04-16T03:48:14.174Z,9.279948
2023-04-16T03:49:14.156Z,9.279964
2023-04-16T03:50:14.160Z,9.279933
2023-04-16T03:51:15.123Z,9.280007
2023-04-16T03:52:14.112Z,9.279940
2023-04-16T03:53:14.087Z,9.279895
2023-04-16T03:54:14.067Z,9.279929
2023-04-16T03:55:14.081Z,9.279963
2023-04-16T03:56:14.037Z,9.279882
2023-04-16T03:57:14.018Z,9.279898
2023-04-16T03:58:14.011Z,9.279959
2023-04-16T03:59:13.990Z,9.279932
2023-04-16T04:00:13.995Z,9.279908
2023-04-16T04:01:13.954Z,9.279913
2023-04-16T04:02:14.034Z,9.280004
2023-04-16T04:03:14.098Z,9.279942
2023-04-16T04:04:13.990Z,9.279899
2023-04-16T04:05:13.917Z,9.279910
2023-04-16T04:06:13.857Z,9.279932
2023-04-16T04:07:13.839Z,9.279883
2023-04-16T04:08:13.820Z,9.279917
2023-04-16T04:09:13.801Z,9.279900
2023-04-16T04:10:13.813Z,9.279891
2023-04-16T04:11:13.772Z,9.279859
2023-04-16T04:12:13.755Z,9.279940
2023-04-16T04:13:13.747Z,9.279935
2023-04-16T04:14:13.723Z,9.279929
2023-04-16T04:15:13.728Z,9.279880
2023-04-16T04:16:13.709Z,9.279930
2023-04-16T04:17:13.668Z,9.279866
2023-04-16T04:18:13.639Z,9.279797
2023-04-16T04:19:14.635Z,9.279758
2023-04-16T04:20:13.633Z,9.279890
2023-04-16T04:21:13.589Z,9.279943
2023-04-16T04:22:13.567Z,9.279902
2023-04-16T04:23:14.555Z,9.279939
2023-04-16T04:24:13.536Z,9.279965
2023-04-16T04:25:13.553Z,9.279919
2023-04-16T04:26:13.522Z,9.279949
2023-04-16T04:27:13.487Z,9.279817
2023-04-16T04:28:13.469Z,9.279959
2023-04-16T04:29:13.453Z,9.280013
2023-04-16T04:30:13.463Z,9.280013
2023-04-16T04:31:13.420Z,9.280017
2023-04-16T04:32:13.393Z,9.279982
2023-04-16T04:33:13.384Z,9.279726
2023-04-16T04:34:13.351Z,9.279821
2023-04-16T04:35:13.361Z,9.279863
2023-04-16T04:36:13.323Z,9.279918
2023-04-16T04:37:13.308Z,9.279957
2023-04-16T04:38:15.582Z,9.279943
2023-04-16T04:39:14.287Z,9.279950
2023-04-16T04:40:13.286Z,9.279883
2023-04-16T04:41:13.238Z,9.279886
2023-04-16T04:42:13.225Z,9.279903
2023-04-16T04:43:13.195Z,9.279886
2023-04-16T04:44:14.179Z,9.279992
2023-04-16T04:45:13.196Z,9.279824
2023-04-16T04:46:13.238Z,9.279866
2023-04-16T04:47:13.128Z,9.279865
2023-04-16T04:48:13.191Z,9.279826
2023-04-16T04:49:13.128Z,9.279928
2023-04-16T04:50:13.118Z,9.279872
2023-04-16T04:51:13.095Z,9.279956
2023-04-16T04:52:13.093Z,9.280017
2023-04-16T04:53:13.021Z,9.279974
2023-04-16T04:54:13.013Z,9.279916
2023-04-16T04:55:13.015Z,9.279852
2023-04-16T04:56:13.316Z,9.279969
2023-04-16T04:57:12.952Z,9.279963
2023-04-16T04:58:12.935Z,9.279919
2023-04-16T04:59:12.925Z,9.279823
2023-04-16T05:00:12.929Z,9.279974
2023-04-16T05:01:12.957Z,9.280063
2023-04-16T05:02:12.906Z,9.280017
2023-04-16T05:03:12.919Z,9.279922
2023-04-16T05:04:12.921Z,9.279961
2023-04-16T05:05:12.877Z,9.279923
2023-04-16T05:06:12.800Z,9.279812
2023-04-16T05:07:12.785Z,9.279824
2023-04-16T05:08:12.767Z,9.279913
2023-04-16T05:09:12.750Z,9.280046
2023-04-16T05:10:12.762Z,9.279992
2023-04-16T05:11:12.717Z,9.279955
2023-04-16T05:12:12.700Z,9.279889
2023-04-16T05:13:12.675Z,9.279731
2023-04-16T05:14:13.317Z,9.279684
2023-04-16T05:15:12.671Z,9.279769
2023-04-16T05:16:12.670Z,9.279813
2023-04-16T05:17:12.618Z,9.279799
2023-04-16T05:18:12.596Z,9.279923
2023-04-16T05:19:12.602Z,9.279926
2023-04-16T05:20:12.588Z,9.279929
2023-04-16T05:21:12.537Z,9.279870
2023-04-16T05:22:12.529Z,9.279836
2023-04-16T05:23:12.505Z,9.279928
2023-04-16T05:24:14.765Z,9.279848
2023-04-16T05:25:12.499Z,9.279836
2023-04-16T05:26:12.458Z,9.279875
2023-04-16T05:27:12.442Z,9.279812
2023-04-16T05:28:12.419Z,9.279901
2023-04-16T05:29:12.494Z,9.279935
2023-04-16T05:30:12.408Z,9.280030
2023-04-16T05:31:12.369Z,9.280179
2023-04-16T05:32:12.352Z,9.280041
2023-04-16T05:33:12.332Z,9.279935
2023-04-16T05:34:12.309Z,9.279906
2023-04-16T05:35:12.324Z,9.280029
2023-04-16T05:36:12.276Z,9.280031
2023-04-16T05:37:12.378Z,9.280005
2023-04-16T05:38:12.242Z,9.280058
2023-04-16T05:39:12.222Z,9.280004
2023-04-16T05:40:12.232Z,9.279972
2023-04-16T05:41:12.181Z,9.279950
2023-04-16T05:42:12.166Z,9.279999
2023-04-16T05:43:12.150Z,9.280011
2023-04-16T05:44:12.128Z,9.279993
2023-04-16T05:45:12.139Z,9.280039
2023-04-16T05:46:12.195Z,9.279897
2023-04-16T05:47:12.087Z,9.279967
2023-04-16T05:48:12.054Z,9.279955
2023-04-16T05:49:12.142Z,9.279949
2023-04-16T05:50:12.056Z,9.279916
2023-04-16T05:51:12.029Z,9.279951
2023-04-16T05:52:12.993Z,9.279943
2023-04-16T05:53:11.971Z,9.279965
2023-04-16T05:54:11.992Z,9.280069
2023-04-16T05:55:11.979Z,9.280012
2023-04-16T05:56:11.947Z,9.279959
2023-04-16T05:57:11.899Z,9.280016
2023-04-16T05:58:11.886Z,9.279978
2023-04-16T05:59:12.120Z,9.279985
2023-04-16T06:00:11.848Z,9.279962
2023-04-16T06:01:11.866Z,9.279996
2023-04-16T06:02:11.887Z,9.280011
2023-04-16T06:03:11.928Z,9.280019
2023-04-16T06:04:11.966Z,9.280039
2023-04-16T06:05:11.779Z,9.280046
2023-04-16T06:06:11.768Z,9.279991
2023-04-16T06:07:11.724Z,9.279985
2023-04-16T06:08:11.709Z,9.280046
2023-04-16T06:09:11.988Z,9.280067
2023-04-16T06:10:48.823Z,9.280081
2023-04-16T06:11:11.661Z,9.279944
2023-04-16T06:12:11.641Z,9.280101
2023-04-16T06:13:48.690Z,9.280114
2023-04-16T06:14:11.610Z,9.280008
2023-04-16T06:15:11.597Z,9.280004
2023-04-16T06:16:11.674Z,9.280043
2023-04-16T06:17:11.564Z,9.280029
2023-04-16T06:18:11.661Z,9.279999
2023-04-16T06:19:11.727Z,9.280027
2023-04-16T06:20:11.519Z,9.280090
2023-04-16T06:21:11.530Z,9.280158
2023-04-16T06:22:11.469Z,9.280057
2023-04-16T06:23:11.488Z,9.280040
2023-04-16T06:24:11.440Z,9.280067
2023-04-16T06:25:11.433Z,9.280040
2023-04-16T06:26:11.433Z,9.280085
2023-04-16T06:27:11.404Z,9.280039
2023-04-16T06:28:11.378Z,9.280040
2023-04-16T06:29:11.547Z,9.279932
2023-04-16T06:30:11.342Z,9.279879
2023-04-16T06:31:11.359Z,9.279982
2023-04-16T06:32:46.450Z,9.280079
2023-04-16T06:33:11.291Z,9.280116
2023-04-16T06:34:11.272Z,9.280324
2023-04-16T06:35:11.260Z,9.280285
2023-04-16T06:36:11.279Z,9.280150
2023-04-16T06:37:11.217Z,9.280230
2023-04-16T06:38:11.203Z,9.280298
2023-04-16T06:39:11.372Z,9.280248
2023-04-16T06:40:11.194Z,9.280054
2023-04-16T06:41:11.181Z,9.280014
2023-04-16T06:42:11.130Z,9.279954
2023-04-16T06:43:11.114Z,9.279957
2023-04-16T06:44:11.100Z,9.280120
2023-04-16T06:45:11.089Z,9.280147
2023-04-16T06:46:46.206Z,9.280081
2023-04-16T06:47:11.103Z,9.279990
2023-04-16T06:48:11.030Z,9.280050
2023-04-16T06:49:18.654Z,9.280040
2023-04-16T06:50:11.000Z,9.280028
2023-04-16T06:51:11.022Z,9.280025
2023-04-16T06:52:46.055Z,9.280026
2023-04-16T06:53:10.953Z,9.280036
2023-04-16T06:54:10.935Z,9.280059
2023-04-16T06:55:48.080Z,9.279999
2023-04-16T06:56:10.898Z,9.280081
2023-04-16T06:57:10.883Z,9.280021
2023-04-16T06:58:43.420Z,9.280107
2023-04-16T06:59:11.051Z,9.280087
2023-04-16T07:00:10.844Z,9.280170
2023-04-16T07:01:10.887Z,9.279978
2023-04-16T07:02:10.951Z,9.280067
2023-04-16T07:03:46.007Z,9.280072
2023-04-16T07:04:10.849Z,9.280074
2023-04-16T07:05:10.753Z,9.280023
2023-04-16T07:06:45.882Z,9.279899
2023-04-16T07:07:47.814Z,9.279886
2023-04-16T07:08:10.710Z,9.280107
2023-04-16T07:09:10.876Z,9.280046
2023-04-16T07:10:47.793Z,9.279914
2023-04-16T07:11:10.666Z,9.279969
2023-04-16T07:12:44.249Z,9.279930
2023-04-16T07:13:10.640Z,9.279790
2023-04-16T07:14:44.192Z,9.279863
2023-04-16T07:15:10.620Z,9.279941
2023-04-16T07:16:47.779Z,9.279901
2023-04-16T07:44:28.595Z,9.279997
2023-04-16T07:45:28.584Z,9.279929
2023-04-16T07:46:39.361Z,9.279913
2023-04-16T07:47:30.581Z,9.279907
2023-04-16T07:48:28.545Z,9.279933
2023-04-16T07:49:28.521Z,9.279915
2023-04-16T07:50:28.515Z,9.279915
2023-04-16T07:51:28.504Z,9.279875
2023-04-16T07:52:28.466Z,9.279869
2023-04-16T07:53:28.441Z,9.279829
2023-04-16T07:54:29.195Z,9.279757
2023-04-16T07:55:29.412Z,9.279900
2023-04-16T07:56:28.421Z,9.279930
2023-04-16T07:57:28.372Z,9.279886
2023-04-16T07:58:28.357Z,9.279860
2023-04-16T07:59:28.518Z,9.279824
2023-04-16T08:00:28.318Z,9.279744
2023-04-16T08:01:28.332Z,9.279814
2023-04-16T08:02:28.365Z,9.279901
2023-04-16T08:03:28.556Z,9.279940
2023-04-16T08:04:28.485Z,9.280013
2023-04-16T08:05:28.260Z,9.279950
2023-04-16T08:06:28.238Z,9.279887
2023-04-16T08:07:28.196Z,9.279934
2023-04-16T08:08:28.171Z,9.279941
2023-04-16T08:09:28.290Z,9.279847
2023-04-16T08:10:28.798Z,9.279868
2023-04-16T08:11:28.157Z,9.279832
2023-04-16T08:12:28.110Z,9.279891
2023-04-16T08:13:28.098Z,9.279960
2023-04-16T08:14:28.080Z,9.279865
2023-04-16T08:15:28.096Z,9.279847
2023-04-16T08:16:28.148Z,9.279824
2023-04-16T08:17:28.056Z,9.279809
2023-04-16T08:18:28.010Z,9.279867
2023-04-16T08:19:27.986Z,9.279989
2023-04-16T08:20:27.976Z,9.279958
2023-04-16T08:21:27.972Z,9.279944
2023-04-16T08:22:27.932Z,9.279888
2023-04-16T08:23:27.912Z,9.279900
2023-04-16T08:24:27.901Z,9.279897
2023-04-16T08:25:27.885Z,9.279934
2023-04-16T08:26:27.890Z,9.279982
2023-04-16T08:27:27.844Z,9.279921
2023-04-16T08:28:27.821Z,9.279976
2023-04-16T08:29:27.807Z,9.279768
2023-04-16T08:30:27.786Z,9.279963
2023-04-16T08:31:28.831Z,9.279820
2023-04-16T08:32:27.776Z,9.279972
2023-04-16T08:33:27.739Z,9.280068
2023-04-16T08:34:27.713Z,9.279868
2023-04-16T08:35:27.699Z,9.279905
2023-04-16T08:36:27.709Z,9.279995
2023-04-16T08:37:27.664Z,9.279948
2023-04-16T08:38:27.652Z,9.279921
2023-04-16T08:40:01.224Z,9.279932
2023-04-16T08:41:01.405Z,9.279952
2023-04-16T08:42:04.709Z,9.280166
2023-04-16T08:42:27.591Z,9.280314
2023-04-16T08:44:02.642Z,9.280073
2023-04-16T08:44:27.576Z,9.279691
2023-04-16T08:46:04.701Z,9.279183
2023-04-16T08:46:27.569Z,9.279602
2023-04-16T08:47:27.575Z,9.279826
2023-04-16T08:48:27.498Z,9.279731
2023-04-16T08:49:27.477Z,9.279670
2023-04-16T08:50:27.463Z,9.279372
2023-04-16T08:52:01.066Z,9.279557
2023-04-16T08:52:27.433Z,9.279776
2023-04-16T08:53:27.416Z,9.279777
2023-04-16T08:55:04.479Z,9.279871
2023-04-16T08:55:27.384Z,9.279914
2023-04-16T08:56:27.387Z,9.279874
2023-04-16T08:57:27.350Z,9.279562
2023-04-16T08:59:00.917Z,9.279761
2023-04-16T08:59:27.326Z,9.279819
2023-04-16T09:00:27.302Z,9.279996
2023-04-16T09:01:27.326Z,9.279941
2023-04-16T09:02:27.406Z,9.279856
2023-04-16T09:04:01.155Z,9.279752
2023-04-16T09:05:00.834Z,9.279870
2023-04-16T09:05:27.210Z,9.279802
2023-04-16T09:07:00.818Z,9.279746
2023-04-16T09:07:27.195Z,9.279952
2023-04-16T09:08:27.172Z,9.280042
2023-04-16T09:10:00.739Z,9.280031
2023-04-16T09:10:27.139Z,9.280126
2023-04-16T09:11:27.147Z,9.279920
